Time;durP1;ratioP1;P1;durP2;ratioP2;P2;SDS_P1;SDS_P2;PMS_P1;PMS_P2;Temp;Humidity;BMP_temperature;BMP_pressure;BME280_temperature;BME280_humidity;BME280_pressure;Samples;Min_cycle;Max_cycle;Signal;HPM_P1;HPM_P2
2022/01/04 00:00:11;;;;;;;;;4.33;3.00;;;;;13.04;79.75;99879.16;5019689;28;45234;-69
2022/01/04 00:02:36;;;;;;;;;5.00;2.33;;;;;13.05;79.76;99877.31;5006328;28;46928;-68
2022/01/04 00:05:04;;;;;;;;;2.33;2.33;;;;;12.71;79.93;99800.41;4999651;28;45528;-66
2022/01/04 00:07:30;;;;;;;;;3.67;2.67;;;;;13.08;79.62;99866.28;4999645;28;45272;-69
2022/01/04 00:09:55;;;;;;;;;3.00;2.00;;;;;13.02;79.57;99841.16;4999662;28;45184;-69
2022/01/04 00:15:06;;;;;;;;;2.00;2.00;;;;;13.15;79.66;99855.69;5019200;28;45446;-69
2022/01/04 00:17:32;;;;;;;;;3.00;1.67;;;;;13.06;79.37;99828.28;5017817;28;45522;-67
2022/01/04 00:19:57;;;;;;;;;2.00;2.00;;;;;13.06;79.19;99826.44;5019448;28;45631;-69
2022/01/04 00:22:23;;;;;;;;;1.67;1.67;;;;;13.18;79.00;99829.50;5018676;28;45789;-68
2022/01/04 00:24:48;;;;;;;;;0.67;0.67;;;;;13.13;79.88;99817.69;5019318;28;45306;-70
2022/01/04 00:27:14;;;;;;;;;1.33;1.00;;;;;12.83;79.41;99777.66;5019564;28;45434;-69
2022/01/04 00:29:39;;;;;;;;;3.00;3.00;;;;;12.98;79.83;99780.31;5019349;28;45512;-70
2022/01/04 00:32:05;;;;;;;;;0.00;0.00;;;;;13.14;79.10;99800.66;5005079;28;47486;-69
2022/01/04 00:34:30;;;;;;;;;2.00;2.00;;;;;12.66;79.54;99725.47;5018979;28;45400;-67
2022/01/04 00:36:56;;;;;;;;;2.33;2.00;;;;;13.19;79.19;99792.94;5006945;28;45348;-68
2022/01/04 00:39:21;;;;;;;;;0.00;0.00;;;;;13.02;79.33;99771.78;5017364;28;45598;-67
2022/01/04 00:41:47;;;;;;;;;0.00;0.00;;;;;12.97;79.26;99751.97;5013574;28;46215;-68
2022/01/04 00:44:12;;;;;;;;;0.00;0.00;;;;;12.75;79.53;99711.03;4999182;28;45415;-67
2022/01/04 00:46:38;;;;;;;;;1.00;1.00;;;;;13.00;79.33;99757.75;4999264;28;45239;-68
2022/01/04 00:49:10;;;;;;;;;2.00;1.00;;;;;13.02;79.87;99755.78;4999308;28;45325;-69
2022/01/04 00:51:37;;;;;;;;;0.00;0.00;;;;;12.94;79.67;99721.16;5001740;28;45629;-69
2022/01/04 00:54:03;;;;;;;;;1.33;1.00;;;;;13.10;79.63;99753.00;5018676;28;46361;-70
2022/01/04 00:56:28;;;;;;;;;0.00;0.00;;;;;13.10;79.12;99736.16;5018844;28;45354;-68
2022/01/04 00:58:54;;;;;;;;;0.00;0.00;;;;;13.00;79.44;99712.41;5018979;28;45293;-69
2022/01/04 01:01:20;;;;;;;;;0.67;0.67;;;;;13.06;79.41;99727.69;5000409;28;47251;-69
2022/01/04 01:03:45;;;;;;;;;0.00;0.00;;;;;13.03;79.45;99725.41;5018787;28;45393;-68
2022/01/04 01:06:10;;;;;;;;;0.00;0.00;;;;;12.97;79.36;99694.09;5018726;28;45251;-70
2022/01/04 01:08:36;;;;;;;;;0.00;0.00;;;;;13.00;79.36;99703.56;5006739;28;45650;-69
2022/01/04 01:11:04;;;;;;;;;0.00;0.00;;;;;12.78;79.26;99658.16;4998585;28;45439;-68
2022/01/04 01:13:29;;;;;;;;;0.00;0.00;;;;;12.72;79.22;99632.22;5016181;28;45441;-68
2022/01/04 01:15:55;;;;;;;;;0.00;0.00;;;;;13.04;78.73;99672.88;5018746;28;45610;-69
2022/01/04 01:18:20;;;;;;;;;0.00;0.00;;;;;13.21;79.06;99692.19;5018328;28;45334;-68
2022/01/04 01:20:48;;;;;;;;;0.00;0.00;;;;;13.26;78.83;99684.47;5018303;28;45537;-70
2022/01/04 01:23:14;;;;;;;;;0.00;0.00;;;;;13.27;78.30;99684.28;5003097;28;46300;-70
2022/01/04 01:25:39;;;;;;;;;0.00;0.00;;;;;13.24;78.27;99675.81;4980799;28;45311;-68
2022/01/04 01:28:05;;;;;;;;;0.00;0.00;;;;;13.31;78.55;99679.38;4997592;28;45359;-68
2022/01/04 01:30:34;;;;;;;;;1.67;1.00;;;;;13.37;77.97;99679.44;4996785;28;47557;-69
2022/01/04 01:32:59;;;;;;;;;0.25;0.25;;;;;13.35;77.94;99667.31;5010693;28;45651;-69
2022/01/04 01:35:25;;;;;;;;;0.00;0.00;;;;;13.09;77.95;99617.09;5018286;28;45394;-70
2022/01/04 01:37:50;;;;;;;;;0.00;0.00;;;;;13.38;77.44;99653.56;5017757;28;45460;-67
2022/01/04 01:40:16;;;;;;;;;0.00;0.00;;;;;13.37;77.55;99646.59;4995904;28;45500;-69
2022/01/04 01:42:41;;;;;;;;;0.00;0.00;;;;;13.09;77.34;99585.91;4998227;28;45436;-69
2022/01/04 01:45:10;;;;;;;;;0.00;0.00;;;;;13.42;77.77;99649.53;4996976;28;45476;-69
2022/01/04 01:47:38;;;;;;;;;0.00;0.00;;;;;13.49;77.72;99636.25;4980719;28;45685;-69
2022/01/04 01:50:04;;;;;;;;;0.00;0.00;;;;;13.56;77.45;99637.13;4999611;28;46749;-69
2022/01/04 01:52:30;;;;;;;;;0.00;0.00;;;;;13.60;77.27;99627.72;5018029;28;45395;-70
2022/01/04 01:54:55;;;;;;;;;0.00;0.00;;;;;13.65;77.11;99614.63;5017781;28;45468;-69
2022/01/04 01:57:22;;;;;;;;;0.00;0.00;;;;;13.55;76.72;99595.41;4997511;28;45537;-68
2022/01/04 01:59:47;;;;;;;;;0.00;0.00;;;;;13.66;76.91;99614.44;5010056;28;46853;-69
2022/01/04 02:02:13;;;;;;;;;0.00;0.00;;;;;13.62;76.78;99599.81;5017648;28;45535;-69
2022/01/04 02:04:38;;;;;;;;;0.00;0.00;;;;;13.63;76.92;99600.66;5017819;28;45342;-69
2022/01/04 02:07:04;;;;;;;;;0.00;0.00;;;;;13.59;76.54;99586.81;5017694;28;45353;-70
2022/01/04 02:09:31;;;;;;;;;0.00;0.00;;;;;13.52;77.06;99569.94;4997681;28;45698;-69
2022/01/04 02:11:57;;;;;;;;;2.67;2.67;;;;;13.67;76.52;99593.91;4997720;28;45391;-69
2022/01/04 02:14:24;;;;;;;;;4.67;3.33;;;;;13.58;75.78;99601.19;4980012;28;45552;-68
2022/01/04 02:16:49;;;;;;;;;5.33;4.33;;;;;12.69;76.57;99474.44;4997756;28;45452;-69
2022/01/04 02:19:16;;;;;;;;;7.33;7.33;;;;;13.26;76.99;99585.69;5015099;28;45459;-70
2022/01/04 02:21:42;;;;;;;;;6.00;6.00;;;;;13.29;75.90;99585.31;5017313;28;45354;-69
2022/01/04 02:24:07;;;;;;;;;7.00;7.00;;;;;13.22;76.37;99590.59;5017412;28;45269;-69
2022/01/04 02:26:33;;;;;;;;;3.00;1.33;;;;;13.09;76.61;99575.22;5017729;28;45397;-69
2022/01/04 02:28:59;;;;;;;;;7.33;5.00;;;;;12.99;76.55;99579.19;5007506;28;46522;-69
2022/01/04 02:31:24;;;;;;;;;3.00;3.00;;;;;12.91;76.55;99572.13;4997569;28;45354;-68
2022/01/04 02:33:50;;;;;;;;;4.33;3.00;;;;;12.76;76.57;99563.34;4997475;28;45501;-69
2022/01/04 02:36:15;;;;;;;;;4.00;4.00;;;;;12.65;77.35;99539.84;4997727;28;45338;-70
2022/01/04 02:38:41;;;;;;;;;4.67;4.00;;;;;12.29;76.69;99476.63;5003460;28;46277;-69
2022/01/04 02:41:06;;;;;;;;;4.00;4.00;;;;;12.76;76.11;99536.66;4999378;28;45338;-70
2022/01/04 02:43:32;;;;;;;;;3.00;3.00;;;;;12.57;76.12;99527.41;5017108;28;45283;-69
2022/01/04 02:45:57;;;;;;;;;4.00;4.00;;;;;12.49;76.66;99527.53;5017402;28;45399;-68
2022/01/04 02:48:22;;;;;;;;;3.00;3.00;;;;;12.51;76.25;99533.50;5011964;28;48433;-68
2022/01/04 02:50:50;;;;;;;;;3.00;3.00;;;;;12.54;75.75;99526.97;4997466;28;45366;-69
2022/01/04 02:53:15;;;;;;;;;3.00;3.00;;;;;12.53;76.32;99519.97;4998272;28;45640;-70
2022/01/04 02:55:41;;;;;;;;;3.00;3.00;;;;;12.43;76.46;99514.94;5009426;28;45508;-68
2022/01/04 02:58:06;;;;;;;;;3.00;3.00;;;;;12.36;76.61;99509.50;5016560;28;45887;-70
2022/01/04 03:00:32;;;;;;;;;4.33;4.33;;;;;12.27;76.83;99499.97;5016922;28;45413;-69
2022/01/04 03:02:57;;;;;;;;;2.00;2.00;;;;;12.14;77.25;99489.13;5016879;28;45384;-70
2022/01/04 03:05:23;;;;;;;;;4.33;4.00;;;;;12.05;76.84;99474.28;5017107;28;45476;-69
2022/01/04 03:07:48;;;;;;;;;7.00;5.67;;;;;12.22;77.00;99489.06;5016613;28;47176;-69
2022/01/04 03:10:14;;;;;;;;;4.00;4.00;;;;;12.23;76.28;99484.56;4998001;28;45389;-69
2022/01/04 03:12:42;;;;;;;;;5.00;5.00;;;;;12.02;76.80;99442.69;5000341;28;45473;-70
2022/01/04 03:15:08;;;;;;;;;3.33;3.33;;;;;12.13;76.52;99471.50;5000831;28;45354;-69
2022/01/04 03:17:33;;;;;;;;;5.00;4.00;;;;;12.21;76.11;99475.88;5000095;28;47859;-69
2022/01/04 03:19:59;;;;;;;;;4.33;4.33;;;;;11.73;76.64;99395.53;5016461;28;45504;-69
2022/01/04 03:22:24;;;;;;;;;4.00;4.00;;;;;12.16;75.86;99457.81;5019353;28;45412;-69
2022/01/04 03:24:49;;;;;;;;;6.00;5.00;;;;;12.11;76.46;99447.72;5000677;28;45508;-69
2022/01/04 03:27:15;;;;;;;;;3.00;3.00;;;;;12.13;76.03;99455.50;4982408;28;46267;-68
2022/01/04 03:29:40;;;;;;;;;3.33;3.33;;;;;11.80;76.19;99417.78;5012441;28;45469;-70
2022/01/04 03:32:06;;;;;;;;;2.67;2.67;;;;;12.00;76.60;99442.00;5002451;28;45290;-68
2022/01/04 03:34:32;;;;;;;;;3.00;3.00;;;;;11.97;76.40;99445.88;5020381;28;45476;-67
2022/01/04 03:36:57;;;;;;;;;4.00;4.00;;;;;11.98;76.77;99446.69;5019973;28;45688;-68
2022/01/04 03:39:22;;;;;;;;;4.00;3.00;;;;;11.86;76.11;99423.22;5009680;28;45456;-69
2022/01/04 03:41:50;;;;;;;;;3.67;2.00;;;;;11.96;76.33;99430.09;4998673;28;45500;-68
2022/01/04 03:44:19;;;;;;;;;2.33;2.33;;;;;11.95;76.14;99433.75;5000306;28;45230;-69
2022/01/04 03:46:50;;;;;;;;;2.00;2.00;;;;;11.79;76.37;99422.28;4982029;28;47620;-69
2022/01/04 03:49:15;;;;;;;;;1.67;1.67;;;;;11.68;76.42;99417.41;5008195;28;45332;-69
2022/01/04 03:51:41;;;;;;;;;1.00;1.00;;;;;11.73;76.45;99419.50;5019809;28;45365;-68
2022/01/04 03:54:07;;;;;;;;;1.00;1.00;;;;;11.49;76.43;99394.81;5002870;28;45695;-67
2022/01/04 03:56:32;;;;;;;;;0.67;0.67;;;;;11.61;76.26;99419.13;4981951;28;46802;-68
2022/01/04 03:58:58;;;;;;;;;1.00;1.00;;;;;11.35;76.63;99402.78;5005705;28;45245;-68
2022/01/04 04:01:23;;;;;;;;;1.00;1.00;;;;;11.30;77.40;99423.78;5019928;28;45584;-68
2022/01/04 04:03:49;;;;;;;;;1.67;1.67;;;;;11.22;77.78;99417.53;5019904;28;45461;-68
2022/01/04 04:06:14;;;;;;;;;0.00;0.00;;;;;11.18;77.56;99421.53;5001569;28;47716;-68
2022/01/04 04:08:39;;;;;;;;;0.00;0.00;;;;;11.13;78.21;99421.25;5018781;28;45393;-68
2022/01/04 04:11:05;;;;;;;;;0.00;0.00;;;;;11.20;77.92;99437.31;5019380;28;45308;-68
2022/01/04 04:13:30;;;;;;;;;1.00;1.00;;;;;11.24;77.70;99438.63;5019856;28;45386;-69
2022/01/04 04:15:55;;;;;;;;;0.00;0.00;;;;;11.11;78.00;99402.00;5019278;28;47078;-68
2022/01/04 04:18:24;;;;;;;;;0.00;0.00;;;;;11.17;77.54;99427.03;5018106;28;45330;-68
2022/01/04 04:20:49;;;;;;;;;0.00;0.00;;;;;11.04;77.68;99437.47;4998184;28;45291;-68
2022/01/04 04:23:14;;;;;;;;;1.00;0.00;;;;;11.11;77.82;99439.25;4981448;28;45326;-68
2022/01/04 04:25:40;;;;;;;;;1.00;1.00;;;;;10.57;77.43;99337.47;4981608;28;48308;-68
2022/01/04 04:28:06;;;;;;;;;0.00;0.00;;;;;11.04;76.40;99422.34;4999321;28;45192;-68
2022/01/04 04:30:32;;;;;;;;;0.00;0.00;;;;;11.06;76.19;99436.28;5017744;28;45563;-67
2022/01/04 04:32:57;;;;;;;;;0.00;0.00;;;;;11.10;76.16;99448.22;5019210;28;45391;-68
2022/01/04 04:35:23;;;;;;;;;0.00;0.00;;;;;10.92;76.82;99434.41;5018885;28;46086;-68
2022/01/04 04:37:48;;;;;;;;;0.00;0.00;;;;;10.85;76.60;99439.63;5019366;28;45500;-68
2022/01/04 04:40:14;;;;;;;;;0.00;0.00;;;;;10.86;76.90;99435.97;5003313;28;45473;-67
2022/01/04 04:42:40;;;;;;;;;0.00;0.00;;;;;10.88;77.10;99443.75;4999051;28;45372;-68
2022/01/04 04:45:06;;;;;;;;;0.00;0.00;;;;;10.87;76.61;99450.06;4998925;28;46136;-67
2022/01/04 04:47:31;;;;;;;;;0.00;0.00;;;;;10.90;77.35;99441.75;4998659;28;45526;-67
2022/01/04 04:49:57;;;;;;;;;0.00;0.00;;;;;10.71;76.61;99431.56;5010718;28;45464;-68
2022/01/04 04:52:22;;;;;;;;;0.00;0.00;;;;;10.68;77.86;99455.84;5013942;28;45457;-68
2022/01/04 04:54:48;;;;;;;;;0.00;0.00;;;;;10.29;77.60;99390.31;4998980;28;45317;-66
2022/01/04 04:57:13;;;;;;;;;0.00;0.00;;;;;10.73;77.23;99461.47;4998913;28;45366;-68
2022/01/04 04:59:39;;;;;;;;;0.00;0.00;;;;;10.56;77.48;99450.94;4991268;28;45545;-67
2022/01/04 05:02:07;;;;;;;;;0.00;0.00;;;;;10.64;78.47;99463.34;5018737;28;45545;-67
2022/01/04 05:04:34;;;;;;;;;0.00;0.00;;;;;10.68;76.75;99469.97;5018479;28;46243;-67
2022/01/04 05:06:59;;;;;;;;;0.00;0.00;;;;;10.53;77.46;99448.63;5018585;28;45171;-67
2022/01/04 05:09:24;;;;;;;;;0.00;0.00;;;;;10.57;77.62;99457.91;5010242;28;45493;-67
2022/01/04 05:11:50;;;;;;;;;0.00;0.00;;;;;10.47;78.20;99462.63;4998909;28;45537;-66
2022/01/04 05:14:15;;;;;;;;;0.00;0.00;;;;;10.46;78.62;99463.63;4998589;28;46482;-66
2022/01/04 05:16:41;;;;;;;;;0.00;0.00;;;;;10.19;77.71;99416.22;4998510;28;45370;-67
2022/01/04 05:19:06;;;;;;;;;0.00;0.00;;;;;10.54;77.63;99468.88;4998806;28;45432;-67
2022/01/04 05:21:32;;;;;;;;;0.00;0.00;;;;;10.62;78.07;99487.47;4999055;28;45314;-67
2022/01/04 05:23:57;;;;;;;;;0.00;0.00;;;;;10.63;77.20;99478.47;4998457;28;45426;-67
2022/01/04 05:26:23;;;;;;;;;0.00;0.00;;;;;10.57;77.16;99463.22;4998716;28;45335;-67
2022/01/04 05:28:48;;;;;;;;;0.00;0.00;;;;;10.73;76.99;99485.38;5014616;28;45410;-67
2022/01/04 05:31:14;;;;;;;;;0.00;0.00;;;;;10.73;77.26;99482.72;4998912;28;45316;-66
2022/01/04 05:33:40;;;;;;;;;0.00;0.00;;;;;10.71;76.14;99474.09;4997199;28;46711;-68
2022/01/04 05:36:06;;;;;;;;;0.67;0.67;;;;;10.60;76.16;99462.84;4998298;28;45360;-66
2022/01/04 05:38:32;;;;;;;;;0.00;0.00;;;;;10.66;76.49;99469.31;4998395;28;45342;-67
2022/01/04 05:40:57;;;;;;;;;0.00;0.00;;;;;10.83;76.16;99483.34;4980825;28;45364;-67
2022/01/04 05:43:23;;;;;;;;;0.00;0.00;;;;;10.78;75.57;99481.19;4998188;28;45788;-69
2022/01/04 05:45:48;;;;;;;;;0.00;0.00;;;;;10.54;75.56;99433.50;4998332;28;45236;-66
2022/01/04 05:48:14;;;;;;;;;0.00;0.00;;;;;10.69;75.48;99465.47;4980690;28;45655;-66
2022/01/04 05:50:39;;;;;;;;;1.00;0.00;;;;;10.71;75.70;99487.41;4980519;28;45529;-68
2022/01/04 05:53:06;;;;;;;;;0.00;0.00;;;;;10.75;75.15;99484.22;5003890;28;45653;-69
2022/01/04 05:55:31;;;;;;;;;0.00;0.00;;;;;10.76;75.26;99477.06;5016541;28;45359;-75
2022/01/04 05:57:57;;;;;;;;;0.00;0.00;;;;;10.86;75.58;99491.78;4998052;28;45480;-67
2022/01/04 06:00:23;;;;;;;;;0.00;0.00;;;;;10.89;74.04;99488.78;4998156;28;45357;-68
2022/01/04 06:02:48;;;;;;;;;0.00;0.00;;;;;10.93;74.15;99494.56;5002715;28;46691;-68
2022/01/04 06:05:13;;;;;;;;;0.00;0.00;;;;;10.86;74.59;99488.31;5017550;28;45417;-68
2022/01/04 06:07:39;;;;;;;;;0.00;0.00;;;;;10.92;74.47;99482.28;5015066;28;45392;-67
2022/01/04 06:10:07;;;;;;;;;0.00;0.00;;;;;10.76;73.59;99471.75;4999207;28;45254;-68
2022/01/04 06:15:06;;;;;;;;;0.00;0.00;;;;;10.92;73.68;99476.94;4997779;28;45755;-68
2022/01/04 06:17:47;;;;;;;;;0.00;0.00;;;;;10.95;73.32;99476.59;4997404;28;45516;-67
2022/01/04 06:20:15;;;;;;;;;1.00;0.00;;;;;11.01;73.25;99475.88;4997712;28;45188;-68
2022/01/04 06:22:42;;;;;;;;;0.00;0.00;;;;;11.06;73.22;99483.34;5011255;28;46934;-68
2022/01/04 06:25:10;;;;;;;;;1.00;1.00;;;;;11.00;73.23;99468.06;5015574;28;45262;-68
2022/01/04 06:27:36;;;;;;;;;0.00;0.00;;;;;11.13;73.37;99485.09;5017330;28;45395;-69
2022/01/04 06:30:04;;;;;;;;;0.00;0.00;;;;;11.16;72.40;99498.03;5006151;28;45611;-65
2022/01/04 06:32:29;;;;;;;;;1.33;1.33;;;;;11.17;72.49;99501.53;4996293;28;48933;-67
2022/01/04 06:34:55;;;;;;;;;0.33;0.33;;;;;11.17;72.19;99509.50;4980879;28;45607;-67
2022/01/04 06:37:20;;;;;;;;;0.00;0.00;;;;;11.21;71.92;99509.00;4997282;28;45730;-66
2022/01/04 06:39:46;;;;;;;;;0.00;0.00;;;;;11.27;72.29;99513.59;5001185;28;45444;-68
2022/01/04 06:42:14;;;;;;;;;5.00;5.00;;;;;11.24;71.84;99516.63;4995798;28;48620;-70
2022/01/04 06:44:43;;;;;;;;;1.00;1.00;;;;;11.09;71.62;99497.09;4995045;28;45585;-69
2022/01/04 06:47:09;;;;;;;;;0.33;0.33;;;;;11.25;71.75;99525.44;4997107;28;45319;-68
2022/01/04 06:49:35;;;;;;;;;1.00;1.00;;;;;11.26;71.15;99533.22;5000496;28;45363;-68
2022/01/04 06:52:00;;;;;;;;;2.00;2.00;;;;;10.93;71.33;99457.34;5016449;28;46756;-67
2022/01/04 06:54:25;;;;;;;;;2.00;2.00;;;;;11.38;71.96;99520.31;4997016;28;45205;-68
2022/01/04 06:56:51;;;;;;;;;1.00;1.00;;;;;11.41;71.76;99529.78;4997938;28;45529;-68
2022/01/04 06:59:17;;;;;;;;;1.00;1.00;;;;;11.48;71.12;99538.72;4997041;28;45433;-67
2022/01/04 07:01:44;;;;;;;;;2.00;2.00;;;;;11.13;71.79;99481.63;4996553;28;45357;-68
2022/01/04 07:04:09;;;;;;;;;1.67;1.67;;;;;11.49;71.00;99556.34;4978818;28;45370;-68
2022/01/04 07:06:35;;;;;;;;;1.00;1.00;;;;;11.48;71.20;99562.66;5008237;28;45322;-68
2022/01/04 07:09:00;;;;;;;;;1.00;1.00;;;;;11.40;71.28;99544.09;5016418;28;45393;-69
2022/01/04 07:11:26;;;;;;;;;2.67;2.00;;;;;11.12;70.97;99483.44;5005787;28;45880;-69
2022/01/04 07:13:52;;;;;;;;;3.00;1.33;;;;;11.37;70.27;99525.81;4996796;28;46039;-67
2022/01/04 07:16:18;;;;;;;;;1.00;1.00;;;;;11.57;70.86;99540.28;4996976;28;45260;-71
2022/01/04 07:18:48;;;;;;;;;0.00;0.00;;;;;11.47;70.35;99534.41;4998295;28;45480;-66
2022/01/04 07:21:15;;;;;;;;;2.00;1.00;;;;;11.30;70.91;99501.75;4995036;28;47191;-71
2022/01/04 07:23:42;;;;;;;;;1.00;1.00;;;;;11.62;70.44;99547.75;4978484;28;45998;-68
2022/01/04 07:26:11;;;;;;;;;1.00;1.00;;;;;11.59;70.49;99539.09;4996191;28;45415;-67
2022/01/04 07:28:38;;;;;;;;;1.00;1.00;;;;;11.62;70.69;99537.09;4996524;28;45563;-68
2022/01/04 07:31:04;;;;;;;;;3.00;0.33;;;;;11.46;70.45;99512.28;4999438;28;46097;-69
2022/01/04 07:33:30;;;;;;;;;1.00;1.00;;;;;11.76;69.97;99571.72;5015837;28;45506;-67
2022/01/04 07:35:55;;;;;;;;;2.00;2.00;;;;;11.45;69.68;99517.78;5015995;28;45361;-68
2022/01/04 07:38:20;;;;;;;;;2.00;2.00;;;;;11.74;70.22;99575.59;5015967;28;45359;-67
2022/01/04 07:40:48;;;;;;;;;3.00;3.00;;;;;11.76;69.95;99587.72;5015837;28;46696;-66
2022/01/04 07:43:14;;;;;;;;;2.00;2.00;;;;;11.64;69.68;99565.19;5015919;28;45302;-66
2022/01/04 07:45:39;;;;;;;;;2.33;2.33;;;;;11.77;69.68;99581.38;5016010;28;45552;-67
2022/01/04 07:48:06;;;;;;;;;5.67;4.00;;;;;11.68;69.32;99579.81;5016072;28;45547;-65
2022/01/04 07:50:31;;;;;;;;;3.33;3.00;;;;;11.14;69.36;99497.41;5015652;28;45841;-67
2022/01/04 07:52:57;;;;;;;;;5.00;3.67;;;;;11.72;69.61;99591.75;5015719;28;45483;-67
2022/01/04 07:55:22;;;;;;;;;3.33;3.33;;;;;11.67;68.58;99594.13;4998067;28;45296;-67
2022/01/04 07:57:48;;;;;;;;;4.00;2.00;;;;;11.70;68.79;99599.09;5004743;28;45234;-67
2022/01/04 08:00:14;;;;;;;;;5.33;4.00;;;;;11.67;68.71;99599.44;5019358;28;45444;-68
2022/01/04 08:02:41;;;;;;;;;3.33;3.33;;;;;11.69;68.52;99617.91;5019447;28;45366;-67
2022/01/04 08:05:09;;;;;;;;;3.67;3.67;;;;;11.55;68.21;99614.16;5019560;28;45465;-66
2022/01/04 08:07:34;;;;;;;;;5.00;3.67;;;;;11.62;68.42;99644.41;5019242;28;45789;-66
2022/01/04 08:09:59;;;;;;;;;5.67;5.00;;;;;11.54;68.55;99637.31;4997096;28;45453;-66
2022/01/04 08:12:25;;;;;;;;;5.00;4.00;;;;;11.64;68.61;99653.06;5017557;28;45563;-65
2022/01/04 08:14:51;;;;;;;;;2.67;2.00;;;;;11.40;68.56;99613.28;5001376;28;45568;-66
2022/01/04 08:17:17;;;;;;;;;3.33;2.00;;;;;11.58;68.47;99641.25;5004653;28;45461;-66
2022/01/04 08:19:42;;;;;;;;;2.00;0.00;;;;;11.65;67.40;99664.53;5017269;28;46122;-68
2022/01/04 08:22:07;;;;;;;;;1.00;1.00;;;;;11.59;68.21;99671.38;5018259;28;45372;-66
2022/01/04 08:24:33;;;;;;;;;1.00;1.00;;;;;11.58;68.02;99667.06;5018516;28;45521;-66
2022/01/04 08:26:59;;;;;;;;;2.67;2.67;;;;;11.67;68.62;99674.00;5019618;28;45424;-64
2022/01/04 08:29:25;;;;;;;;;6.33;6.00;;;;;11.27;68.15;99604.06;5017646;28;46703;-66
2022/01/04 08:31:50;;;;;;;;;4.00;4.00;;;;;11.63;69.01;99643.41;5018653;28;45443;-69
2022/01/04 08:34:16;;;;;;;;;5.00;3.33;;;;;11.53;68.50;99611.69;5017565;28;45398;-65
2022/01/04 08:36:41;;;;;;;;;1.00;1.00;;;;;11.81;68.49;99661.75;5019217;28;45420;-65
2022/01/04 08:39:14;;;;;;;;;2.67;2.67;;;;;11.89;68.72;99683.00;5018705;28;46122;-67
2022/01/04 08:41:40;;;;;;;;;3.67;2.00;;;;;11.90;68.56;99683.84;5018705;28;45164;-66
2022/01/04 08:44:06;;;;;;;;;1.67;1.67;;;;;11.97;67.84;99690.09;5033866;28;45396;-66
2022/01/04 08:46:33;;;;;;;;;3.67;2.67;;;;;11.94;67.93;99679.81;5033844;28;45511;-67
2022/01/04 08:48:59;;;;;;;;;3.00;1.67;;;;;11.86;67.44;99676.22;5018690;28;45829;-65
2022/01/04 08:51:24;;;;;;;;;1.67;0.67;;;;;11.94;67.37;99703.78;5009295;28;45468;-67
2022/01/04 08:53:50;;;;;;;;;0.00;0.00;;;;;11.87;67.31;99693.84;5014173;28;45533;-67
2022/01/04 08:56:18;;;;;;;;;2.00;2.00;;;;;11.91;67.77;99698.81;4999257;28;45455;-67
2022/01/04 08:58:43;;;;;;;;;4.67;4.67;;;;;11.90;68.32;99686.50;4998558;28;46260;-67
2022/01/04 09:01:09;;;;;;;;;4.00;4.00;;;;;11.81;68.42;99678.59;4998728;28;45527;-66
2022/01/04 09:03:34;;;;;;;;;1.00;1.00;;;;;11.88;68.15;99682.19;4998707;28;45247;-68
2022/01/04 09:05:59;;;;;;;;;1.67;1.67;;;;;11.97;68.53;99698.91;4998724;28;45528;-66
2022/01/04 09:08:25;;;;;;;;;1.33;1.00;;;;;11.54;67.83;99641.78;4997220;28;46160;-66
2022/01/04 09:10:51;;;;;;;;;2.00;2.00;;;;;11.91;67.85;99712.13;4998369;28;45476;-66
2022/01/04 09:13:19;;;;;;;;;0.00;0.00;;;;;11.94;67.76;99711.78;4998183;28;45543;-66
2022/01/04 09:18:48;;;;;;;;;1.67;1.67;;;;;11.97;68.24;99732.72;4998195;28;45464;-66
2022/01/04 09:21:20;;;;;;;;;0.00;0.00;;;;;11.95;67.50;99724.09;5009902;28;45589;-69
2022/01/04 09:23:48;;;;;;;;;3.00;1.00;;;;;11.71;68.01;99672.63;5017785;28;45342;-66
2022/01/04 09:26:15;;;;;;;;;2.67;2.00;;;;;12.00;67.46;99711.06;5018508;28;45522;-66
2022/01/04 09:28:42;;;;;;;;;1.67;1.00;;;;;12.00;67.92;99701.22;5017681;28;45655;-67
2022/01/04 09:31:08;;;;;;;;;1.67;1.67;;;;;11.94;67.75;99690.47;5016756;28;46163;-66
2022/01/04 09:33:37;;;;;;;;;2.00;2.00;;;;;12.07;67.56;99704.03;5017975;28;45234;-67
2022/01/04 09:36:04;;;;;;;;;3.00;2.00;;;;;12.05;67.42;99708.69;5018221;28;45243;-66
2022/01/04 09:38:30;;;;;;;;;2.33;2.33;;;;;11.88;67.91;99702.66;4999675;28;47245;-67
2022/01/04 09:40:55;;;;;;;;;7.00;6.00;;;;;11.90;68.70;99687.34;5017543;28;45227;-65
2022/01/04 09:43:21;;;;;;;;;6.00;4.67;;;;;11.93;68.85;99683.47;5017941;28;45544;-68
2022/01/04 09:45:47;;;;;;;;;6.00;4.67;;;;;11.96;68.57;99680.47;5017675;28;45469;-67
2022/01/04 09:48:13;;;;;;;;;5.33;5.33;;;;;11.86;68.78;99689.53;5017279;28;45718;-66
2022/01/04 09:50:42;;;;;;;;;7.00;4.33;;;;;11.85;69.20;99711.84;5030372;28;45381;-65
2022/01/04 09:53:09;;;;;;;;;4.00;4.00;;;;;11.93;69.13;99720.78;4998974;28;45412;-64
2022/01/04 09:55:41;;;;;;;;;9.67;9.67;;;;;11.69;68.32;99693.28;4997890;28;45440;-66
2022/01/04 09:58:06;;;;;;;;;3.00;3.00;;;;;11.87;69.15;99733.81;4997070;28;46730;-67
2022/01/04 10:00:32;;;;;;;;;4.67;3.67;;;;;11.79;69.14;99723.19;4997587;28;45313;-66
2022/01/04 10:03:25;;;;;;;;;4.00;3.00;;;;;11.83;69.36;99737.81;4997547;28;45529;-66
2022/01/04 10:06:15;;;;;;;;;4.00;3.00;;;;;11.78;69.33;99728.66;4997762;28;45420;-66
2022/01/04 10:08:55;;;;;;;;;2.67;2.00;;;;;11.85;69.24;99741.13;4997290;28;46212;-66
2022/01/04 10:11:42;;;;;;;;;3.00;2.00;;;;;11.52;68.90;99689.06;4997454;28;45341;-66
2022/01/04 10:14:27;;;;;;;;;6.00;4.00;;;;;11.93;69.28;99766.06;4997300;28;45408;-65
2022/01/04 10:17:04;;;;;;;;;3.33;3.00;;;;;11.91;69.08;99766.22;4997138;28;45277;-66
2022/01/04 10:19:38;;;;;;;;;6.33;6.33;;;;;11.62;69.01;99724.28;4996804;28;46131;-67
2022/01/04 10:22:27;;;;;;;;;4.33;4.33;;;;;11.95;68.68;99772.03;5013857;28;45498;-66
2022/01/04 10:25:02;;;;;;;;;3.00;3.00;;;;;11.94;68.58;99767.72;5017180;28;45270;-66
2022/01/04 10:27:43;;;;;;;;;5.33;5.00;;;;;11.98;68.33;99761.00;5017251;28;45603;-67
2022/01/04 10:30:23;;;;;;;;;4.00;2.67;;;;;11.98;68.12;99756.50;5016879;28;46488;-67
2022/01/04 10:33:02;;;;;;;;;4.00;2.00;;;;;11.91;68.52;99744.09;5016208;28;45939;-67
2022/01/04 10:35:30;;;;;;;;;3.00;3.00;;;;;11.80;68.76;99738.16;5003047;28;45493;-66
2022/01/04 10:38:00;;;;;;;;;2.00;2.00;;;;;11.83;69.18;99748.47;5004998;28;45599;-66
2022/01/04 10:40:27;;;;;;;;;8.33;7.00;;;;;11.90;69.85;99742.44;4986393;28;47638;-66
2022/01/04 10:42:57;;;;;;;;;4.00;3.00;;;;;11.91;69.19;99739.59;4996709;28;45258;-66
2022/01/04 10:45:32;;;;;;;;;3.67;3.67;;;;;11.77;69.08;99724.34;4997126;28;45327;-65
2022/01/04 10:48:13;;;;;;;;;4.00;2.33;;;;;11.91;69.70;99728.94;4996169;28;45263;-65
2022/01/04 10:50:43;;;;;;;;;8.00;7.00;;;;;11.87;69.87;99720.47;5013189;28;45787;-65
2022/01/04 10:53:28;;;;;;;;;6.67;6.00;;;;;11.93;70.08;99708.28;4996665;28;45331;-65
2022/01/04 10:55:58;;;;;;;;;6.67;5.00;;;;;12.17;69.22;99733.91;4996765;28;45411;-67
2022/01/04 10:58:30;;;;;;;;;3.33;3.33;;;;;12.12;68.60;99744.28;4995579;28;45611;-65
2022/01/04 11:00:59;;;;;;;;;2.00;2.00;;;;;12.19;68.36;99742.53;4996601;28;46016;-65
2022/01/04 11:03:29;;;;;;;;;7.00;3.00;;;;;12.11;68.25;99737.28;4996392;28;45430;-66
2022/01/04 11:06:06;;;;;;;;;3.00;3.00;;;;;12.10;68.76;99739.13;4995786;28;45335;-67
2022/01/04 11:08:32;;;;;;;;;5.00;4.33;;;;;11.98;68.64;99729.88;4980245;28;45593;-66
2022/01/04 11:11:00;;;;;;;;;2.00;2.00;;;;;11.99;68.89;99726.19;4996685;28;46457;-65
2022/01/04 11:13:25;;;;;;;;;3.00;3.00;;;;;12.11;68.14;99735.44;4996272;28;45254;-64
2022/01/04 11:15:55;;;;;;;;;1.67;1.67;;;;;12.16;69.07;99727.75;4996665;28;45243;-64
2022/01/04 11:18:24;;;;;;;;;3.33;3.33;;;;;11.40;68.39;99597.31;5010345;28;45442;-66
2022/01/04 11:20:51;;;;;;;;;3.00;3.00;;;;;12.19;68.73;99731.88;4993732;28;45921;-70
2022/01/04 11:23:22;;;;;;;;;1.67;1.00;;;;;12.10;68.99;99739.13;4997993;28;45849;-68
2022/01/04 11:25:48;;;;;;;;;2.00;2.00;;;;;12.00;68.78;99711.06;4983601;28;45567;-66
2022/01/04 11:28:23;;;;;;;;;3.00;3.00;;;;;12.20;69.79;99741.53;5009396;28;45529;-70
2022/01/04 11:31:13;;;;;;;;;4.33;3.67;;;;;12.18;68.80;99731.06;5009897;28;45562;-70
2022/01/04 11:33:57;;;;;;;;;2.33;2.33;;;;;11.80;68.89;99679.56;5017861;28;45311;-69
2022/01/04 11:36:28;;;;;;;;;3.00;2.00;;;;;11.64;69.25;99662.88;5017867;28;45545;-71
2022/01/04 11:38:54;;;;;;;;;3.00;2.00;;;;;11.99;68.95;99717.38;4997083;28;45393;-66
2022/01/04 11:41:38;;;;;;;;;23.33;21.33;;;;;12.20;69.04;99744.19;5019195;28;45784;-68